sensor_id;sensor_type;location;lat;lon;timestamp;pressure;altitude;pressure_sealevel;temperature;humidity
71151;BME280;59071;42.138;24.768;2022-09-09T00:03:59;99865.22;;;22.55;49.67
71151;BME280;59071;42.138;24.768;2022-09-09T00:06:43;99853.09;;;22.42;49.90
71151;BME280;59071;42.138;24.768;2022-09-09T00:09:12;99862.66;;;22.30;50.10
71151;BME280;59071;42.138;24.768;2022-09-09T00:11:46;99864.84;;;22.12;50.41
71151;BME280;59071;42.138;24.768;2022-09-09T00:17:09;99873.28;;;22.05;50.92
71151;BME280;59071;42.138;24.768;2022-09-09T00:22:17;99864.34;;;22.05;51.21
71151;BME280;59071;42.138;24.768;2022-09-09T00:24:52;99866.25;;;21.99;51.43
71151;BME280;59071;42.138;24.768;2022-09-09T00:27:40;99862.25;;;21.81;52.08
71151;BME280;59071;42.138;24.768;2022-09-09T00:32:47;99868.19;;;21.83;52.48
71151;BME280;59071;42.138;24.768;2022-09-09T00:35:23;99879.56;;;21.85;52.18
71151;BME280;59071;42.138;24.768;2022-09-09T00:37:52;99882.88;;;21.57;52.59
71151;BME280;59071;42.138;24.768;2022-09-09T00:40:31;99884.47;;;21.68;52.61
71151;BME280;59071;42.138;24.768;2022-09-09T00:43:28;99883.94;;;21.71;53.13
71151;BME280;59071;42.138;24.768;2022-09-09T00:48:54;99870.91;;;21.83;52.46
71151;BME280;59071;42.138;24.768;2022-09-09T00:56:47;99878.53;;;21.76;52.67
71151;BME280;59071;42.138;24.768;2022-09-09T01:04:53;99891.53;;;21.64;53.07
71151;BME280;59071;42.138;24.768;2022-09-09T01:07:20;99886.13;;;21.69;52.67
71151;BME280;59071;42.138;24.768;2022-09-09T01:09:59;99881.78;;;21.63;53.12
71151;BME280;59071;42.138;24.768;2022-09-09T01:12:41;99886.69;;;21.56;53.38
71151;BME280;59071;42.138;24.768;2022-09-09T01:15:18;99886.13;;;21.48;53.59
71151;BME280;59071;42.138;24.768;2022-09-09T01:18:02;99890.19;;;21.25;54.33
71151;BME280;59071;42.138;24.768;2022-09-09T01:28:40;99886.91;;;21.13;54.55
71151;BME280;59071;42.138;24.768;2022-09-09T01:31:10;99882.59;;;21.12;54.63
71151;BME280;59071;42.138;24.768;2022-09-09T01:33:36;99873.91;;;20.89;55.02
71151;BME280;59071;42.138;24.768;2022-09-09T01:36:04;99876.63;;;21.00;54.76
71151;BME280;59071;42.138;24.768;2022-09-09T01:38:31;99886.66;;;21.20;54.19
71151;BME280;59071;42.138;24.768;2022-09-09T01:40:58;99884.50;;;21.27;54.29
71151;BME280;59071;42.138;24.768;2022-09-09T01:43:24;99871.47;;;21.34;53.87
71151;BME280;59071;42.138;24.768;2022-09-09T01:45:52;99878.00;;;21.33;53.89
71151;BME280;59071;42.138;24.768;2022-09-09T01:48:21;99877.19;;;21.43;53.76
71151;BME280;59071;42.138;24.768;2022-09-09T01:50:48;99871.22;;;21.36;54.26
71151;BME280;59071;42.138;24.768;2022-09-09T01:53:15;99866.06;;;21.39;54.00
71151;BME280;59071;42.138;24.768;2022-09-09T01:55:48;99874.47;;;21.43;53.87
71151;BME280;59071;42.138;24.768;2022-09-09T02:03:47;99879.59;;;21.34;54.07
71151;BME280;59071;42.138;24.768;2022-09-09T02:06:39;99878.00;;;21.33;54.44
71151;BME280;59071;42.138;24.768;2022-09-09T02:09:06;99879.38;;;21.15;54.87
71151;BME280;59071;42.138;24.768;2022-09-09T02:11:33;99873.66;;;21.22;54.83
71151;BME280;59071;42.138;24.768;2022-09-09T02:14:05;99878.53;;;21.15;54.70
71151;BME280;59071;42.138;24.768;2022-09-09T02:16:40;99878.00;;;21.13;55.23
71151;BME280;59071;42.138;24.768;2022-09-09T02:19:21;99878.78;;;21.13;55.68
71151;BME280;59071;42.138;24.768;2022-09-09T02:21:52;99873.69;;;21.12;55.48
71151;BME280;59071;42.138;24.768;2022-09-09T02:24:19;99870.69;;;21.03;55.72
71151;BME280;59071;42.138;24.768;2022-09-09T02:26:46;99876.09;;;20.87;56.62
71151;BME280;59071;42.138;24.768;2022-09-09T02:29:17;99867.44;;;20.91;56.27
71151;BME280;59071;42.138;24.768;2022-09-09T02:31:45;99867.66;;;20.68;56.97
71151;BME280;59071;42.138;24.768;2022-09-09T02:34:13;99872.25;;;20.63;57.00
71151;BME280;59071;42.138;24.768;2022-09-09T02:36:40;99862.53;;;20.67;56.79
71151;BME280;59071;42.138;24.768;2022-09-09T02:39:09;99870.09;;;20.65;56.77
71151;BME280;59071;42.138;24.768;2022-09-09T02:41:38;99871.19;;;20.64;56.80
71151;BME280;59071;42.138;24.768;2022-09-09T02:44:11;99872.53;;;20.77;57.23
71151;BME280;59071;42.138;24.768;2022-09-09T02:52:07;99878.22;;;20.80;57.22
71151;BME280;59071;42.138;24.768;2022-09-09T02:54:35;99875.78;;;20.79;56.77
71151;BME280;59071;42.138;24.768;2022-09-09T02:57:19;99874.47;;;20.81;57.09
71151;BME280;59071;42.138;24.768;2022-09-09T02:59:46;99880.41;;;20.94;56.56
71151;BME280;59071;42.138;24.768;2022-09-09T03:02:12;99884.75;;;20.95;56.92
71151;BME280;59071;42.138;24.768;2022-09-09T03:04:39;99888.25;;;20.95;56.32
71151;BME280;59071;42.138;24.768;2022-09-09T03:07:05;99881.50;;;20.93;55.79
71151;BME280;59071;42.138;24.768;2022-09-09T03:09:30;99879.59;;;20.88;56.41
71151;BME280;59071;42.138;24.768;2022-09-09T03:11:56;99863.88;;;20.75;56.76
71151;BME280;59071;42.138;24.768;2022-09-09T03:14:22;99871.75;;;20.81;56.71
71151;BME280;59071;42.138;24.768;2022-09-09T03:16:51;99878.50;;;20.79;56.61
71151;BME280;59071;42.138;24.768;2022-09-09T03:19:17;99882.25;;;20.62;56.42
71151;BME280;59071;42.138;24.768;2022-09-09T03:21:44;99880.66;;;20.72;56.67
71151;BME280;59071;42.138;24.768;2022-09-09T03:24:10;99891.22;;;20.78;56.78
71151;BME280;59071;42.138;24.768;2022-09-09T03:26:35;99895.00;;;20.87;56.47
71151;BME280;59071;42.138;24.768;2022-09-09T03:29:03;99896.38;;;20.85;56.65
71151;BME280;59071;42.138;24.768;2022-09-09T03:31:32;99894.75;;;20.94;56.33
71151;BME280;59071;42.138;24.768;2022-09-09T03:33:58;99902.06;;;20.99;55.82
71151;BME280;59071;42.138;24.768;2022-09-09T03:36:27;99898.53;;;20.93;55.61
71151;BME280;59071;42.138;24.768;2022-09-09T03:38:54;99903.38;;;20.86;55.51
71151;BME280;59071;42.138;24.768;2022-09-09T03:41:23;99905.00;;;20.77;56.24
71151;BME280;59071;42.138;24.768;2022-09-09T03:43:52;99915.28;;;20.80;56.45
71151;BME280;59071;42.138;24.768;2022-09-09T03:46:20;99911.25;;;20.87;56.55
71151;BME280;59071;42.138;24.768;2022-09-09T03:48:45;99901.22;;;20.78;56.81
71151;BME280;59071;42.138;24.768;2022-09-09T03:51:11;99906.63;;;20.88;55.49
71151;BME280;59071;42.138;24.768;2022-09-09T03:53:37;99903.66;;;20.89;55.14
71151;BME280;59071;42.138;24.768;2022-09-09T03:56:03;99906.13;;;20.91;54.99
71151;BME280;59071;42.138;24.768;2022-09-09T03:58:32;99912.59;;;20.95;55.33
71151;BME280;59071;42.138;24.768;2022-09-09T04:01:00;99905.00;;;20.82;54.59
71151;BME280;59071;42.138;24.768;2022-09-09T04:03:27;99900.66;;;20.70;54.17
71151;BME280;59071;42.138;24.768;2022-09-09T04:05:53;99900.53;;;20.40;54.52
71151;BME280;59071;42.138;24.768;2022-09-09T04:08:19;99899.28;;;20.00;55.95
71151;BME280;59071;42.138;24.768;2022-09-09T04:10:46;99896.03;;;20.03;56.08
71151;BME280;59071;42.138;24.768;2022-09-09T04:13:13;99904.59;;;19.89;56.93
71151;BME280;59071;42.138;24.768;2022-09-09T04:15:41;99902.16;;;20.36;54.72
71151;BME280;59071;42.138;24.768;2022-09-09T04:18:07;99907.69;;;20.72;53.63
71151;BME280;59071;42.138;24.768;2022-09-09T04:20:33;99906.81;;;20.50;53.31
71151;BME280;59071;42.138;24.768;2022-09-09T04:22:59;99903.53;;;20.48;54.50
71151;BME280;59071;42.138;24.768;2022-09-09T04:25:25;99897.09;;;20.60;53.75
71151;BME280;59071;42.138;24.768;2022-09-09T04:27:57;99888.25;;;20.85;52.86
71151;BME280;59071;42.138;24.768;2022-09-09T04:30:24;99886.91;;;20.87;53.88
71151;BME280;59071;42.138;24.768;2022-09-09T04:32:49;99898.81;;;21.22;52.09
71151;BME280;59071;42.138;24.768;2022-09-09T04:35:15;99896.41;;;21.26;51.99
71151;BME280;59071;42.138;24.768;2022-09-09T04:37:40;99903.69;;;21.20;52.35
71151;BME280;59071;42.138;24.768;2022-09-09T04:40:07;99902.91;;;21.35;51.90
71151;BME280;59071;42.138;24.768;2022-09-09T04:42:38;99906.09;;;21.89;51.08
71151;BME280;59071;42.138;24.768;2022-09-09T04:45:04;99896.72;;;22.46;49.50
71151;BME280;59071;42.138;24.768;2022-09-09T04:47:30;99913.56;;;22.43;49.38
71151;BME280;59071;42.138;24.768;2022-09-09T04:49:55;99914.81;;;22.61;49.05
71151;BME280;59071;42.138;24.768;2022-09-09T04:52:21;99920.34;;;22.90;47.99
71151;BME280;59071;42.138;24.768;2022-09-09T04:54:47;99917.97;;;23.23;47.07
71151;BME280;59071;42.138;24.768;2022-09-09T04:57:13;99917.22;;;23.17;47.52
71151;BME280;59071;42.138;24.768;2022-09-09T04:59:38;99925.34;;;23.52;46.95
71151;BME280;59071;42.138;24.768;2022-09-09T05:02:04;99929.88;;;23.61;47.34
71151;BME280;59071;42.138;24.768;2022-09-09T05:04:30;99933.63;;;23.95;47.37
71151;BME280;59071;42.138;24.768;2022-09-09T05:06:56;99928.72;;;24.45;46.34
71151;BME280;59071;42.138;24.768;2022-09-09T05:09:21;99926.22;;;24.73;46.00
71151;BME280;59071;42.138;24.768;2022-09-09T05:11:46;99930.28;;;24.75;46.01
71151;BME280;59071;42.138;24.768;2022-09-09T05:14:12;99931.56;;;25.16;45.31
71151;BME280;59071;42.138;24.768;2022-09-09T05:16:37;99929.38;;;25.37;44.98
71151;BME280;59071;42.138;24.768;2022-09-09T05:19:03;99927.53;;;25.65;43.80
71151;BME280;59071;42.138;24.768;2022-09-09T05:21:28;99915.31;;;24.73;45.73
71151;BME280;59071;42.138;24.768;2022-09-09T05:23:56;99913.75;;;24.24;47.23
71151;BME280;59071;42.138;24.768;2022-09-09T05:26:22;99914.91;;;24.42;46.65
71151;BME280;59071;42.138;24.768;2022-09-09T05:28:48;99912.09;;;24.90;44.92
71151;BME280;59071;42.138;24.768;2022-09-09T05:31:15;99918.94;;;25.25;43.82
71151;BME280;59071;42.138;24.768;2022-09-09T05:33:42;99911.19;;;25.13;43.73
71151;BME280;59071;42.138;24.768;2022-09-09T05:36:10;99917.44;;;25.33;43.54
71151;BME280;59071;42.138;24.768;2022-09-09T05:38:38;99927.50;;;26.26;41.33
71151;BME280;59071;42.138;24.768;2022-09-09T05:41:04;99922.59;;;25.81;41.64
71151;BME280;59071;42.138;24.768;2022-09-09T05:43:30;99923.59;;;25.71;42.28
71151;BME280;59071;42.138;24.768;2022-09-09T05:46:05;99926.31;;;25.71;42.36
71151;BME280;59071;42.138;24.768;2022-09-09T05:48:32;99927.34;;;25.75;42.21
71151;BME280;59071;42.138;24.768;2022-09-09T05:50:59;99925.88;;;26.52;40.86
71151;BME280;59071;42.138;24.768;2022-09-09T05:53:25;99921.81;;;26.50;40.65
71151;BME280;59071;42.138;24.768;2022-09-09T05:55:58;99921.94;;;26.31;40.88
71151;BME280;59071;42.138;24.768;2022-09-09T05:58:24;99923.06;;;26.02;41.30
71151;BME280;59071;42.138;24.768;2022-09-09T06:00:49;99922.53;;;26.14;41.02
71151;BME280;59071;42.138;24.768;2022-09-09T06:03:15;99922.16;;;27.21;39.14
71151;BME280;59071;42.138;24.768;2022-09-09T06:05:42;99917.03;;;26.83;39.76
71151;BME280;59071;42.138;24.768;2022-09-09T06:08:07;99913.13;;;26.48;40.32
71151;BME280;59071;42.138;24.768;2022-09-09T06:10:33;99905.72;;;26.76;40.02
71151;BME280;59071;42.138;24.768;2022-09-09T06:12:59;99893.22;;;26.98;39.03
71151;BME280;59071;42.138;24.768;2022-09-09T06:15:25;99890.91;;;27.59;38.11
71151;BME280;59071;42.138;24.768;2022-09-09T06:17:56;99897.56;;;27.21;38.22
71151;BME280;59071;42.138;24.768;2022-09-09T06:20:21;99897.63;;;27.07;38.27
71151;BME280;59071;42.138;24.768;2022-09-09T06:22:47;99900.72;;;26.92;38.68
71151;BME280;59071;42.138;24.768;2022-09-09T06:25:14;99897.81;;;27.34;37.81
71151;BME280;59071;42.138;24.768;2022-09-09T06:27:39;99892.03;;;28.46;36.09
71151;BME280;59071;42.138;24.768;2022-09-09T06:30:06;99897.09;;;28.13;36.30
71151;BME280;59071;42.138;24.768;2022-09-09T06:32:32;99882.41;;;27.92;36.73
71151;BME280;59071;42.138;24.768;2022-09-09T06:34:59;99903.59;;;27.86;37.11
71151;BME280;59071;42.138;24.768;2022-09-09T06:37:26;99910.06;;;27.90;37.14
71151;BME280;59071;42.138;24.768;2022-09-09T06:39:52;99911.91;;;29.04;35.22
71151;BME280;59071;42.138;24.768;2022-09-09T06:42:19;99909.47;;;28.59;35.80
71151;BME280;59071;42.138;24.768;2022-09-09T06:44:45;99923.94;;;28.02;36.67
71151;BME280;59071;42.138;24.768;2022-09-09T06:47:10;99910.47;;;28.15;36.48
71151;BME280;59071;42.138;24.768;2022-09-09T06:49:36;99915.47;;;28.21;36.44
71151;BME280;59071;42.138;24.768;2022-09-09T06:52:01;99909.03;;;28.17;36.37
71151;BME280;59071;42.138;24.768;2022-09-09T06:54:27;99916.88;;;28.94;35.12
71151;BME280;59071;42.138;24.768;2022-09-09T06:56:53;99918.63;;;28.63;35.64
71151;BME280;59071;42.138;24.768;2022-09-09T06:59:21;99907.94;;;28.36;35.96
71151;BME280;59071;42.138;24.768;2022-09-09T07:01:47;99908.66;;;28.59;36.22
71151;BME280;59071;42.138;24.768;2022-09-09T07:04:13;99906.75;;;28.85;35.32
71151;BME280;59071;42.138;24.768;2022-09-09T07:06:43;99914.94;;;29.03;35.30
71151;BME280;59071;42.138;24.768;2022-09-09T07:09:11;99920.59;;;29.07;35.26
71151;BME280;59071;42.138;24.768;2022-09-09T07:11:39;99918.03;;;29.28;34.86
71151;BME280;59071;42.138;24.768;2022-09-09T07:14:06;99902.66;;;29.53;34.80
71151;BME280;59071;42.138;24.768;2022-09-09T07:16:32;99907.97;;;29.49;34.20
71151;BME280;59071;42.138;24.768;2022-09-09T07:18:58;99907.53;;;29.12;35.50
71151;BME280;59071;42.138;24.768;2022-09-09T07:21:25;99912.53;;;29.10;35.45
71151;BME280;59071;42.138;24.768;2022-09-09T07:23:54;99903.03;;;29.16;34.81
71151;BME280;59071;42.138;24.768;2022-09-09T07:26:21;99908.50;;;29.42;34.70
71151;BME280;59071;42.138;24.768;2022-09-09T07:28:49;99903.22;;;29.29;35.15
71151;BME280;59071;42.138;24.768;2022-09-09T07:31:28;99914.28;;;29.50;35.02
71151;BME280;59071;42.138;24.768;2022-09-09T07:33:56;99917.34;;;29.39;35.01
71151;BME280;59071;42.138;24.768;2022-09-09T07:36:30;99907.75;;;29.72;34.48
71151;BME280;59071;42.138;24.768;2022-09-09T07:38:58;99906.75;;;29.94;34.11
71151;BME280;59071;42.138;24.768;2022-09-09T07:41:27;99907.53;;;29.94;34.34
71151;BME280;59071;42.138;24.768;2022-09-09T07:43:53;99910.91;;;30.00;33.84
71151;BME280;59071;42.138;24.768;2022-09-09T07:46:23;99904.00;;;29.94;33.37
71151;BME280;59071;42.138;24.768;2022-09-09T07:48:56;99911.19;;;30.07;33.64
71151;BME280;59071;42.138;24.768;2022-09-09T07:51:26;99906.75;;;30.24;33.07
71151;BME280;59071;42.138;24.768;2022-09-09T07:53:58;99896.44;;;30.50;32.44
71151;BME280;59071;42.138;24.768;2022-09-09T07:56:25;99897.66;;;30.62;32.50
71151;BME280;59071;42.138;24.768;2022-09-09T07:58:52;99904.13;;;30.57;32.50
71151;BME280;59071;42.138;24.768;2022-09-09T08:03:47;99892.41;;;31.44;30.80
71151;BME280;59071;42.138;24.768;2022-09-09T08:06:19;99895.44;;;30.97;31.79
71151;BME280;59071;42.138;24.768;2022-09-09T08:08:49;99886.66;;;30.83;32.29
71151;BME280;59071;42.138;24.768;2022-09-09T08:11:16;99879.97;;;30.71;32.18
71151;BME280;59071;42.138;24.768;2022-09-09T08:13:43;99884.75;;;30.32;32.76
71151;BME280;59071;42.138;24.768;2022-09-09T08:16:11;99882.03;;;30.53;32.26
71151;BME280;59071;42.138;24.768;2022-09-09T08:18:37;99884.44;;;30.25;32.73
71151;BME280;59071;42.138;24.768;2022-09-09T08:21:16;99881.84;;;30.37;32.12
71151;BME280;59071;42.138;24.768;2022-09-09T08:23:44;99879.16;;;30.20;32.46
71151;BME280;59071;42.138;24.768;2022-09-09T08:28:40;99879.31;;;29.94;33.36
71151;BME280;59071;42.138;24.768;2022-09-09T08:31:12;99869.41;;;30.31;33.37
71151;BME280;59071;42.138;24.768;2022-09-09T08:33:39;99866.72;;;30.52;32.24
71151;BME280;59071;42.138;24.768;2022-09-09T08:36:05;99862.16;;;30.77;31.96
71151;BME280;59071;42.138;24.768;2022-09-09T08:38:31;99863.38;;;30.68;32.35
71151;BME280;59071;42.138;24.768;2022-09-09T08:43:47;99851.81;;;30.74;32.89
71151;BME280;59071;42.138;24.768;2022-09-09T08:46:27;99864.56;;;31.00;32.24
71151;BME280;59071;42.138;24.768;2022-09-09T08:49:13;99861.53;;;31.26;31.82
71151;BME280;59071;42.138;24.768;2022-09-09T08:51:42;99864.56;;;31.46;31.40
71151;BME280;59071;42.138;24.768;2022-09-09T08:54:08;99859.84;;;31.34;31.99
71151;BME280;59071;42.138;24.768;2022-09-09T08:56:35;99855.63;;;31.03;32.10
71151;BME280;59071;42.138;24.768;2022-09-09T08:59:04;99858.38;;;31.03;31.62
71151;BME280;59071;42.138;24.768;2022-09-09T09:01:57;99853.00;;;30.52;32.67
71151;BME280;59071;42.138;24.768;2022-09-09T09:04:49;99857.00;;;30.97;32.13
71151;BME280;59071;42.138;24.768;2022-09-09T09:07:46;99845.03;;;31.14;32.12
71151;BME280;59071;42.138;24.768;2022-09-09T09:12:44;99850.19;;;31.15;31.60
71151;BME280;59071;42.138;24.768;2022-09-09T09:15:24;99842.88;;;31.32;31.29
71151;BME280;59071;42.138;24.768;2022-09-09T09:17:50;99836.78;;;31.14;32.09
71151;BME280;59071;42.138;24.768;2022-09-09T09:20:19;99834.16;;;31.17;31.25
71151;BME280;59071;42.138;24.768;2022-09-09T09:22:52;99835.56;;;30.90;31.77
71151;BME280;59071;42.138;24.768;2022-09-09T09:25:27;99827.69;;;31.01;31.91
71151;BME280;59071;42.138;24.768;2022-09-09T09:30:40;99812.41;;;30.58;32.49
71151;BME280;59071;42.138;24.768;2022-09-09T09:33:50;99802.56;;;30.57;32.63
71151;BME280;59071;42.138;24.768;2022-09-09T09:36:16;99809.69;;;30.70;32.92
71151;BME280;59071;42.138;24.768;2022-09-09T09:38:58;99806.53;;;30.17;33.25
71151;BME280;59071;42.138;24.768;2022-09-09T09:41:42;99804.03;;;30.54;32.97
71151;BME280;59071;42.138;24.768;2022-09-09T09:44:29;99790.53;;;30.83;32.49
71151;BME280;59071;42.138;24.768;2022-09-09T09:47:27;99793.81;;;30.97;32.86
71151;BME280;59071;42.138;24.768;2022-09-09T09:52:23;99783.69;;;30.89;33.39
71151;BME280;59071;42.138;24.768;2022-09-09T09:54:49;99783.53;;;31.18;32.52
71151;BME280;59071;42.138;24.768;2022-09-09T09:57:16;99779.19;;;30.84;32.83
71151;BME280;59071;42.138;24.768;2022-09-09T09:59:43;99771.94;;;31.01;32.66
71151;BME280;59071;42.138;24.768;2022-09-09T10:02:18;99785.59;;;31.09;32.23
71151;BME280;59071;42.138;24.768;2022-09-09T10:04:44;99775.88;;;31.24;32.25
71151;BME280;59071;42.138;24.768;2022-09-09T10:07:18;99759.97;;;31.30;32.26
71151;BME280;59071;42.138;24.768;2022-09-09T10:09:44;99762.25;;;30.82;33.14
71151;BME280;59071;42.138;24.768;2022-09-09T10:20:49;99755.84;;;30.45;34.37
71151;BME280;59071;42.138;24.768;2022-09-09T10:29:07;99757.41;;;30.33;34.30
71151;BME280;59071;42.138;24.768;2022-09-09T10:31:52;99773.78;;;30.42;34.71
71151;BME280;59071;42.138;24.768;2022-09-09T10:34:55;99775.72;;;30.42;34.56
71151;BME280;59071;42.138;24.768;2022-09-09T10:40:33;99744.38;;;31.22;33.59
71151;BME280;59071;42.138;24.768;2022-09-09T10:56:44;99739.78;;;31.01;33.94
71151;BME280;59071;42.138;24.768;2022-09-09T10:59:19;99735.09;;;31.02;33.55
71151;BME280;59071;42.138;24.768;2022-09-09T11:01:53;99724.22;;;31.05;33.68
71151;BME280;59071;42.138;24.768;2022-09-09T11:04:26;99719.88;;;31.16;33.76
71151;BME280;59071;42.138;24.768;2022-09-09T11:06:54;99735.69;;;31.20;33.31
71151;BME280;59071;42.138;24.768;2022-09-09T11:09:31;99729.44;;;30.52;34.17
71151;BME280;59071;42.138;24.768;2022-09-09T11:12:00;99715.66;;;30.19;34.77
71151;BME280;59071;42.138;24.768;2022-09-09T11:14:41;99714.81;;;30.60;34.88
71151;BME280;59071;42.138;24.768;2022-09-09T11:17:33;99709.41;;;30.85;34.45
71151;BME280;59071;42.138;24.768;2022-09-09T11:20:01;99713.69;;;31.20;34.73
71151;BME280;59071;42.138;24.768;2022-09-09T11:25:19;99709.22;;;31.40;33.22
71151;BME280;59071;42.138;24.768;2022-09-09T11:28:15;99701.34;;;31.38;33.37
71151;BME280;59071;42.138;24.768;2022-09-09T11:41:47;99676.78;;;32.23;32.57
71151;BME280;59071;42.138;24.768;2022-09-09T11:44:18;99684.28;;;32.10;32.38
71151;BME280;59071;42.138;24.768;2022-09-09T11:46:50;99684.34;;;32.26;32.15
71151;BME280;59071;42.138;24.768;2022-09-09T11:49:42;99677.00;;;32.46;31.73
71151;BME280;59071;42.138;24.768;2022-09-09T11:52:18;99681.97;;;32.40;31.78
71151;BME280;59071;42.138;24.768;2022-09-09T11:54:49;99683.59;;;32.01;32.50
71151;BME280;59071;42.138;24.768;2022-09-09T11:57:30;99670.03;;;32.20;31.90
71151;BME280;59071;42.138;24.768;2022-09-09T11:59:57;99665.38;;;32.08;32.25
71151;BME280;59071;42.138;24.768;2022-09-09T12:02:25;99662.81;;;32.15;32.07
71151;BME280;59071;42.138;24.768;2022-09-09T12:05:11;99666.75;;;32.59;32.28
71151;BME280;59071;42.138;24.768;2022-09-09T12:07:41;99660.81;;;32.72;31.71
71151;BME280;59071;42.138;24.768;2022-09-09T12:10:29;99646.66;;;32.90;31.24
71151;BME280;59071;42.138;24.768;2022-09-09T12:13:18;99649.41;;;32.90;31.56
71151;BME280;59071;42.138;24.768;2022-09-09T12:15:55;99646.50;;;32.99;31.58
71151;BME280;59071;42.138;24.768;2022-09-09T12:18:31;99648.53;;;33.18;31.11
71151;BME280;59071;42.138;24.768;2022-09-09T12:21:03;99643.13;;;33.05;31.14
71151;BME280;59071;42.138;24.768;2022-09-09T12:26:34;99632.75;;;32.83;30.97
71151;BME280;59071;42.138;24.768;2022-09-09T12:34:15;99622.00;;;32.62;32.14
71151;BME280;59071;42.138;24.768;2022-09-09T12:36:44;99623.31;;;32.68;32.22
71151;BME280;59071;42.138;24.768;2022-09-09T12:39:19;99619.78;;;32.67;31.71
71151;BME280;59071;42.138;24.768;2022-09-09T12:41:52;99619.00;;;32.39;32.04
71151;BME280;59071;42.138;24.768;2022-09-09T12:44:29;99615.63;;;32.29;31.97
71151;BME280;59071;42.138;24.768;2022-09-09T12:46:56;99616.75;;;32.28;32.67
71151;BME280;59071;42.138;24.768;2022-09-09T12:49:37;99611.59;;;32.27;32.20
71151;BME280;59071;42.138;24.768;2022-09-09T12:52:07;99604.81;;;31.80;32.81
71151;BME280;59071;42.138;24.768;2022-09-09T12:54:36;99601.19;;;31.92;33.18
71151;BME280;59071;42.138;24.768;2022-09-09T12:57:03;99601.47;;;32.15;32.72
71151;BME280;59071;42.138;24.768;2022-09-09T12:59:40;99598.28;;;32.29;32.86
71151;BME280;59071;42.138;24.768;2022-09-09T13:02:25;99601.91;;;32.17;33.31
71151;BME280;59071;42.138;24.768;2022-09-09T13:04:51;99594.41;;;32.02;33.66
71151;BME280;59071;42.138;24.768;2022-09-09T13:07:20;99588.50;;;32.15;33.19
71151;BME280;59071;42.138;24.768;2022-09-09T13:09:47;99586.91;;;32.30;33.37
71151;BME280;59071;42.138;24.768;2022-09-09T13:12:19;99580.38;;;32.51;31.92
71151;BME280;59071;42.138;24.768;2022-09-09T13:14:52;99594.00;;;32.76;32.05
71151;BME280;59071;42.138;24.768;2022-09-09T13:17:21;99581.72;;;33.60;30.88
71151;BME280;59071;42.138;24.768;2022-09-09T13:19:47;99569.34;;;34.12;30.42
71151;BME280;59071;42.138;24.768;2022-09-09T13:22:37;99566.13;;;34.53;29.88
71151;BME280;59071;42.138;24.768;2022-09-09T13:25:05;99569.25;;;34.74;29.05
71151;BME280;59071;42.138;24.768;2022-09-09T13:27:34;99566.38;;;34.94;29.35
71151;BME280;59071;42.138;24.768;2022-09-09T13:30:00;99575.31;;;35.37;28.59
71151;BME280;59071;42.138;24.768;2022-09-09T13:32:26;99583.09;;;35.01;28.59
71151;BME280;59071;42.138;24.768;2022-09-09T13:34:57;99575.31;;;35.10;28.98
71151;BME280;59071;42.138;24.768;2022-09-09T13:37:33;99569.09;;;35.17;28.42
71151;BME280;59071;42.138;24.768;2022-09-09T13:39:59;99574.72;;;34.97;29.45
71151;BME280;59071;42.138;24.768;2022-09-09T13:42:27;99559.19;;;34.62;28.78
71151;BME280;59071;42.138;24.768;2022-09-09T13:44:53;99557.94;;;35.10;28.40
71151;BME280;59071;42.138;24.768;2022-09-09T13:47:22;99553.03;;;35.26;28.82
71151;BME280;59071;42.138;24.768;2022-09-09T13:49:51;99551.31;;;35.44;28.32
71151;BME280;59071;42.138;24.768;2022-09-09T13:52:18;99552.16;;;35.49;28.11
71151;BME280;59071;42.138;24.768;2022-09-09T13:54:52;99549.50;;;35.59;28.29
71151;BME280;59071;42.138;24.768;2022-09-09T13:57:24;99547.84;;;34.94;29.10
71151;BME280;59071;42.138;24.768;2022-09-09T13:59:54;99538.81;;;34.97;29.08
71151;BME280;59071;42.138;24.768;2022-09-09T14:02:20;99539.69;;;35.05;28.61
71151;BME280;59071;42.138;24.768;2022-09-09T14:04:48;99539.47;;;34.87;28.87
71151;BME280;59071;42.138;24.768;2022-09-09T14:07:17;99541.00;;;35.11;28.97
71151;BME280;59071;42.138;24.768;2022-09-09T14:09:43;99539.38;;;35.10;29.06
71151;BME280;59071;42.138;24.768;2022-09-09T14:12:11;99542.06;;;34.76;29.46
71151;BME280;59071;42.138;24.768;2022-09-09T14:14:37;99533.13;;;34.37;29.64
71151;BME280;59071;42.138;24.768;2022-09-09T14:17:02;99534.09;;;33.82;30.42
71151;BME280;59071;42.138;24.768;2022-09-09T14:19:29;99535.97;;;33.39;31.16
71151;BME280;59071;42.138;24.768;2022-09-09T14:21:54;99531.13;;;33.72;30.50
71151;BME280;59071;42.138;24.768;2022-09-09T14:24:19;99537.16;;;33.97;30.22
71151;BME280;59071;42.138;24.768;2022-09-09T14:26:45;99536.09;;;34.05;30.08
71151;BME280;59071;42.138;24.768;2022-09-09T14:29:10;99535.53;;;33.96;30.09
71151;BME280;59071;42.138;24.768;2022-09-09T14:31:36;99527.81;;;33.82;30.22
71151;BME280;59071;42.138;24.768;2022-09-09T14:34:01;99519.50;;;33.62;30.61
71151;BME280;59071;42.138;24.768;2022-09-09T14:36:26;99514.91;;;33.66;30.67
71151;BME280;59071;42.138;24.768;2022-09-09T14:38:52;99517.84;;;33.58;30.88
71151;BME280;59071;42.138;24.768;2022-09-09T14:41:19;99533.91;;;33.17;31.77
71151;BME280;59071;42.138;24.768;2022-09-09T14:43:45;99530.91;;;33.06;31.92
71151;BME280;59071;42.138;24.768;2022-09-09T14:46:13;99539.03;;;32.99;32.07
71151;BME280;59071;42.138;24.768;2022-09-09T14:48:38;99525.56;;;32.78;32.08
71151;BME280;59071;42.138;24.768;2022-09-09T14:51:10;99525.47;;;32.74;32.32
71151;BME280;59071;42.138;24.768;2022-09-09T14:53:36;99515.84;;;32.84;32.31
71151;BME280;59071;42.138;24.768;2022-09-09T14:56:07;99509.38;;;32.92;32.16
71151;BME280;59071;42.138;24.768;2022-09-09T14:58:33;99520.22;;;32.85;32.23